Time;durP1;ratioP1;P1;durP2;ratioP2;P2;SDS_P1;SDS_P2;PMS_P1;PMS_P2;Temp;Humidity;BMP_temperature;BMP_pressure;BME280_temperature;BME280_humidity;BME280_pressure;Samples;Min_cycle;Max_cycle;Signal;HPM_P1;HPM_P2
2023/09/18 00:01:03;;;;;;;13.60;12.60;;;21.90;99.90;;;;;;5014353;28;21020;-89
2023/09/18 00:06:17;;;;;;;12.07;11.17;;;21.90;99.90;;;;;;5011124;28;20465;-89
2023/09/18 00:08:56;;;;;;;16.07;14.60;;;21.90;99.90;;;;;;5028142;28;20467;-89
2023/09/18 00:11:31;;;;;;;12.40;11.50;;;21.90;99.90;;;;;;5020757;28;20479;-88
2023/09/18 00:14:09;;;;;;;12.60;11.50;;;21.80;99.90;;;;;;5014010;28;20502;-88
2023/09/18 00:19:49;;;;;;;10.93;10.10;;;21.90;99.90;;;;;;5017750;28;20472;-89
2023/09/18 00:22:19;;;;;;;12.23;11.00;;;21.80;99.90;;;;;;5020856;28;20499;-88
2023/09/18 00:24:57;;;;;;;14.63;13.30;;;21.80;99.90;;;;;;5028224;28;20472;-89
2023/09/18 00:27:25;;;;;;;13.70;12.50;;;21.80;99.90;;;;;;5013609;28;20537;-88
2023/09/18 00:29:58;;;;;;;13.93;12.73;;;21.80;99.90;;;;;;5024212;28;20522;-89
2023/09/18 00:32:31;;;;;;;14.40;13.20;;;21.80;99.90;;;;;;5023630;28;20857;-88
2023/09/18 00:35:05;;;;;;;12.20;11.00;;;21.80;99.90;;;;;;5023618;28;20472;-89
2023/09/18 00:37:39;;;;;;;15.33;13.80;;;21.70;99.90;;;;;;5033779;28;20479;-88
2023/09/18 00:40:25;;;;;;;13.50;12.33;;;21.70;99.90;;;;;;5005716;28;20455;-88
2023/09/18 00:43:21;;;;;;;16.87;15.47;;;21.70;99.90;;;;;;5006867;28;20477;-88
2023/09/18 00:46:06;;;;;;;11.50;10.70;;;21.70;99.90;;;;;;5013153;28;20488;-88
2023/09/18 00:48:42;;;;;;;202.10;181.10;;;21.70;99.90;;;;;;5003593;28;20473;-89
2023/09/18 00:51:10;;;;;;;55.97;50.73;;;21.70;99.90;;;;;;5025485;28;20470;-89
2023/09/18 00:53:48;;;;;;;18.43;16.87;;;21.70;99.90;;;;;;5043582;28;20536;-88
2023/09/18 00:56:16;;;;;;;11.37;10.47;;;21.70;99.90;;;;;;5044741;28;20527;-88
2023/09/18 00:58:45;;;;;;;14.10;12.80;;;21.70;99.90;;;;;;5053976;28;20468;-89
2023/09/18 01:01:18;;;;;;;11.90;10.90;;;21.70;99.90;;;;;;5053766;28;20464;-89
2023/09/18 01:03:46;;;;;;;10.97;9.97;;;21.80;99.90;;;;;;5053698;28;20474;-88
2023/09/18 01:06:13;;;;;;;8.97;8.30;;;21.80;99.90;;;;;;5035325;28;20484;-88
2023/09/18 01:08:47;;;;;;;9.80;9.07;;;21.70;99.90;;;;;;5044754;28;20476;-88
2023/09/18 01:11:26;;;;;;;10.50;9.70;;;21.80;99.90;;;;;;5026842;28;20480;-89
2023/09/18 01:14:09;;;;;;;11.73;10.73;;;21.70;99.90;;;;;;5024994;28;20477;-89
2023/09/18 01:16:43;;;;;;;14.30;13.10;;;21.70;99.90;;;;;;5020322;28;20479;-88
2023/09/18 01:19:15;;;;;;;9.90;9.00;;;21.70;99.90;;;;;;5042767;28;20486;-88
2023/09/18 01:21:46;;;;;;;14.03;12.67;;;21.70;99.90;;;;;;5033162;28;20878;-88
2023/09/18 01:24:23;;;;;;;12.27;11.10;;;21.70;99.90;;;;;;5029804;28;20521;-89
2023/09/18 01:27:00;;;;;;;11.93;10.93;;;21.70;99.90;;;;;;5054029;28;20558;-88
2023/09/18 01:35:16;;;;;;;10.47;9.63;;;21.70;99.90;;;;;;5017844;28;20468;-89
2023/09/18 01:37:46;;;;;;;9.77;8.97;;;21.70;99.90;;;;;;5036619;28;20517;-89
2023/09/18 01:40:15;;;;;;;12.70;11.60;;;21.70;99.90;;;;;;5020069;28;20463;-88
2023/09/18 01:42:48;;;;;;;10.27;9.40;;;21.70;99.90;;;;;;5035910;28;20472;-88
2023/09/18 01:45:47;;;;;;;9.80;9.00;;;21.70;99.90;;;;;;5035787;28;20479;-88
2023/09/18 01:48:18;;;;;;;11.83;10.83;;;21.70;99.90;;;;;;5031404;28;20930;-88
2023/09/18 01:51:23;;;;;;;12.80;11.70;;;21.60;99.90;;;;;;5036075;28;20970;-88
2023/09/18 01:53:53;;;;;;;11.23;10.43;;;21.60;99.90;;;;;;5023918;28;20468;-89
2023/09/18 01:56:27;;;;;;;10.43;9.60;;;21.60;99.90;;;;;;5022309;28;20480;-89
2023/09/18 01:58:57;;;;;;;9.87;9.07;;;21.60;99.90;;;;;;5036693;28;20534;-89
2023/09/18 02:01:24;;;;;;;9.20;8.30;;;21.60;99.90;;;;;;5038388;28;20468;-88
2023/09/18 02:04:21;;;;;;;10.40;9.60;;;21.60;99.90;;;;;;5036029;28;20861;-88
2023/09/18 02:07:15;;;;;;;8.87;8.07;;;21.50;99.90;;;;;;5015712;28;20481;-88
2023/09/18 02:09:43;;;;;;;10.00;9.10;;;21.50;99.90;;;;;;5005750;28;20471;-88
2023/09/18 02:12:18;;;;;;;10.20;9.40;;;21.40;99.90;;;;;;5034914;28;21010;-88
2023/09/18 02:14:45;;;;;;;10.13;9.43;;;21.40;99.90;;;;;;5035674;28;20490;-87
2023/09/18 02:17:20;;;;;;;10.77;9.90;;;21.30;99.90;;;;;;5034615;28;20467;-88
2023/09/18 02:19:55;;;;;;;13.77;12.43;;;21.30;99.90;;;;;;5035565;28;20470;-87
2023/09/18 02:22:23;;;;;;;11.43;10.50;;;21.30;99.90;;;;;;5010673;28;20480;-87
2023/09/18 02:27:47;;;;;;;10.30;9.40;;;21.30;99.90;;;;;;5033789;28;20928;-87
2023/09/18 02:30:15;;;;;;;10.43;9.60;;;21.20;99.90;;;;;;5011857;28;20485;-87
2023/09/18 02:32:46;;;;;;;11.13;10.23;;;21.20;99.90;;;;;;5004590;28;20457;-89
2023/09/18 02:35:14;;;;;;;11.10;10.20;;;21.20;99.90;;;;;;5020337;28;20518;-87
2023/09/18 02:37:46;;;;;;;10.23;9.27;;;21.20;99.90;;;;;;5010297;28;20583;-87
2023/09/18 02:40:18;;;;;;;9.77;8.87;;;21.20;99.90;;;;;;5035462;28;20471;-88
2023/09/18 02:42:53;;;;;;;11.23;10.23;;;21.10;99.90;;;;;;5011785;28;20511;-87
2023/09/18 02:45:20;;;;;;;8.27;7.73;;;21.00;99.90;;;;;;5011171;28;20476;-88
2023/09/18 02:50:34;;;;;;;10.17;9.17;;;21.00;99.90;;;;;;5012465;28;20493;-88
2023/09/18 02:53:07;;;;;;;9.90;9.00;;;21.00;99.90;;;;;;5025757;28;20464;-88
2023/09/18 02:55:35;;;;;;;9.50;8.70;;;20.90;99.90;;;;;;5035448;28;20990;-88
2023/09/18 02:58:09;;;;;;;9.13;8.33;;;21.00;99.90;;;;;;5009328;28;20471;-88
2023/09/18 03:00:41;;;;;;;8.77;8.07;;;21.00;99.90;;;;;;5009021;28;20468;-88
2023/09/18 03:03:16;;;;;;;10.37;9.57;;;20.90;99.90;;;;;;5020646;28;20861;-88
2023/09/18 03:05:47;;;;;;;9.30;8.50;;;21.00;99.90;;;;;;5021304;28;21015;-88
2023/09/18 03:08:16;;;;;;;10.97;10.07;;;20.80;99.90;;;;;;5035482;28;20472;-88
2023/09/18 03:10:57;;;;;;;8.77;8.07;;;20.80;99.90;;;;;;5024989;28;20492;-87
2023/09/18 03:16:37;;;;;;;10.23;9.50;;;20.80;99.90;;;;;;4994166;28;20957;-88
2023/09/18 03:19:04;;;;;;;11.37;10.47;;;20.70;99.90;;;;;;5033392;28;20533;-88
2023/09/18 03:24:55;;;;;;;9.70;8.97;;;20.70;99.90;;;;;;5026646;28;20476;-87
2023/09/18 03:27:37;;;;;;;8.80;8.00;;;20.60;99.90;;;;;;5034648;28;20467;-87
2023/09/18 03:30:08;;;;;;;9.97;9.00;;;20.70;99.90;;;;;;5033434;28;20515;-88
2023/09/18 03:32:35;;;;;;;10.17;9.27;;;20.70;99.90;;;;;;5016093;28;20481;-89
2023/09/18 03:35:03;;;;;;;10.43;9.53;;;20.70;99.90;;;;;;5012054;28;20512;-89
2023/09/18 03:37:35;;;;;;;10.00;9.10;;;20.60;99.90;;;;;;5033285;28;20503;-89
2023/09/18 03:40:26;;;;;;;;;;;;;;;;;;;;;
2023/09/18 03:42:59;;;;;;;8.47;7.87;;;20.70;99.90;;;;;;5015979;28;20480;-88
2023/09/18 03:45:32;;;;;;;8.13;7.53;;;20.70;99.90;;;;;;5021623;28;20492;-88
2023/09/18 03:48:02;;;;;;;10.80;10.00;;;20.70;99.90;;;;;;5009445;28;20472;-88
2023/09/18 03:50:38;;;;;;;10.27;9.37;;;20.70;99.90;;;;;;5024499;28;20472;-89
2023/09/18 03:53:08;;;;;;;9.00;8.30;;;20.70;99.90;;;;;;5018912;28;20468;-88
2023/09/18 03:55:47;;;;;;;10.10;9.40;;;20.60;99.90;;;;;;5024451;28;20487;-87
2023/09/18 03:58:45;;;;;;;8.93;8.23;;;20.70;99.90;;;;;;5034734;28;20471;-88
2023/09/18 04:01:19;;;;;;;10.60;9.80;;;20.70;99.90;;;;;;5013486;28;20469;-88
2023/09/18 04:03:48;;;;;;;10.03;9.23;;;20.70;99.90;;;;;;5027320;28;20462;-88
2023/09/18 04:06:20;;;;;;;9.33;8.50;;;20.60;99.90;;;;;;5032438;28;20511;-88
2023/09/18 04:09:15;;;;;;;9.23;8.50;;;20.70;99.90;;;;;;5033832;28;20974;-88
2023/09/18 04:15:54;;;;;;;9.67;8.87;;;20.60;99.90;;;;;;5022915;28;20851;-88
2023/09/18 04:18:22;;;;;;;9.70;9.00;;;20.60;99.90;;;;;;4945359;29;20455;-88
2023/09/18 04:20:51;;;;;;;9.87;9.10;;;20.60;99.90;;;;;;4953155;29;20506;-89
2023/09/18 04:23:21;;;;;;;9.50;8.80;;;20.60;99.90;;;;;;4994790;28;20444;-88
2023/09/18 04:25:54;;;;;;;11.10;10.03;;;20.60;99.90;;;;;;5032936;28;20464;-88
2023/09/18 04:28:46;;;;;;;;;;;;;;;;;;;;;
2023/09/18 04:31:51;;;;;;;10.53;9.53;;;20.60;99.90;;;;;;5010846;28;20468;-88
2023/09/18 04:34:37;;;;;;;8.80;8.10;;;20.60;99.90;;;;;;4982662;28;20556;-87
2023/09/18 04:37:13;;;;;;;10.33;9.60;;;20.60;99.90;;;;;;5027900;28;21055;-87
2023/09/18 04:39:56;;;;;;;9.63;8.90;;;20.60;99.90;;;;;;5007224;28;20500;-87
2023/09/18 04:42:26;;;;;;;10.13;9.27;;;20.60;99.90;;;;;;5018678;28;20513;-88
2023/09/18 04:44:58;;;;;;;10.07;9.03;;;20.50;99.90;;;;;;5035219;28;20558;-88
2023/09/18 04:47:29;;;;;;;9.27;8.47;;;20.50;99.90;;;;;;5010040;28;20465;-88
2023/09/18 04:50:01;;;;;;;10.47;9.53;;;20.50;99.90;;;;;;5012313;28;20485;-89
2023/09/18 04:52:37;;;;;;;10.00;9.10;;;20.50;99.90;;;;;;5007982;28;20877;-88
2023/09/18 04:55:19;;;;;;;11.33;10.23;;;20.50;99.90;;;;;;5031010;28;20487;-88
2023/09/18 04:57:47;;;;;;;10.03;9.33;;;20.50;99.90;;;;;;5038122;28;20472;-88
2023/09/18 05:00:27;;;;;;;10.00;9.20;;;20.50;99.90;;;;;;5002302;28;20468;-88
2023/09/18 05:02:55;;;;;;;10.60;9.30;;;20.50;99.90;;;;;;5012226;28;20530;-87
2023/09/18 05:05:33;;;;;;;10.80;9.90;;;20.50;99.90;;;;;;5005421;28;20491;-88
2023/09/18 05:08:04;;;;;;;10.30;9.40;;;20.40;99.90;;;;;;5004347;28;20484;-87
2023/09/18 05:10:31;;;;;;;9.93;9.13;;;20.40;99.90;;;;;;5032072;28;20475;-88
2023/09/18 05:13:02;;;;;;;9.23;8.53;;;20.40;99.90;;;;;;5011791;28;20503;-88
2023/09/18 05:15:42;;;;;;;;;;;;;;;;;;;;;
2023/09/18 05:18:14;;;;;;;10.73;9.73;;;20.50;99.90;;;;;;5020859;28;20472;-88
2023/09/18 05:20:43;;;;;;;10.20;9.40;;;20.50;99.90;;;;;;5036124;28;20456;-88
2023/09/18 05:23:16;;;;;;;9.73;8.80;;;20.50;99.90;;;;;;5037512;28;20475;-88
2023/09/18 05:26:07;;;;;;;11.97;10.37;;;20.50;99.90;;;;;;5038277;28;20468;-89
2023/09/18 05:28:41;;;;;;;11.10;10.20;;;20.50;99.90;;;;;;5036180;28;20468;-88
2023/09/18 05:32:02;;;;;;;8.43;7.70;;;20.50;99.90;;;;;;5020715;28;20568;-88
2023/09/18 05:37:12;;;;;;;11.07;10.17;;;20.50;99.90;;;;;;5050170;23;20496;-88
2023/09/18 05:40:04;;;;;;;10.00;9.20;;;20.50;99.90;;;;;;5037024;28;20487;-89
2023/09/18 05:42:34;;;;;;;9.97;9.07;;;20.60;99.90;;;;;;5024087;28;20472;-87
2023/09/18 05:45:13;;;;;;;9.87;9.03;;;20.60;99.90;;;;;;5023165;28;20480;-88
2023/09/18 05:47:43;;;;;;;9.70;8.90;;;20.60;99.90;;;;;;5018087;28;20550;-88
2023/09/18 05:50:22;;;;;;;10.00;9.10;;;20.60;99.90;;;;;;5023461;28;20483;-87
2023/09/18 05:53:15;;;;;;;9.40;8.70;;;20.60;99.90;;;;;;5035949;28;20471;-89
2023/09/18 05:55:43;;;;;;;10.47;9.40;;;20.60;99.90;;;;;;5016556;28;20475;-88
2023/09/18 05:58:37;;;;;;;10.40;9.50;;;20.60;99.90;;;;;;5001886;28;20473;-89
2023/09/18 06:01:19;;;;;;;12.27;9.20;;;20.70;99.90;;;;;;5032499;28;20456;-88
2023/09/18 06:06:21;;;;;;;9.93;8.80;;;20.70;99.90;;;;;;5780153;23;20495;-89
2023/09/18 06:08:56;;;;;;;9.07;8.27;;;20.80;99.90;;;;;;4999171;28;20487;-89
2023/09/18 06:11:32;;;;;;;14.60;9.80;;;20.80;99.90;;;;;;5005618;28;20469;-89
2023/09/18 06:14:35;;;;;;;11.80;10.10;;;20.90;99.90;;;;;;4995046;28;20858;-89
2023/09/18 06:17:20;;;;;;;10.63;8.60;;;21.00;99.90;;;;;;5004200;28;20477;-88
2023/09/18 06:19:56;;;;;;;9.43;8.53;;;21.00;99.90;;;;;;5016760;28;20473;-89
2023/09/18 06:22:27;;;;;;;10.63;8.87;;;21.00;99.90;;;;;;5015834;28;20457;-89
2023/09/18 06:25:16;;;;;;;9.87;9.03;;;21.00;99.90;;;;;;5016679;28;20520;-89
2023/09/18 06:27:57;;;;;;;9.03;8.07;;;21.10;99.90;;;;;;5015864;28;20493;-89
2023/09/18 06:30:45;;;;;;;8.93;8.23;;;21.00;99.90;;;;;;5015865;28;21029;-89
2023/09/18 06:36:07;;;;;;;10.20;9.30;;;21.10;99.90;;;;;;5016399;28;20557;-89
2023/09/18 06:38:36;;;;;;;9.27;8.50;;;21.10;99.90;;;;;;5021842;28;20472;-89
2023/09/18 06:53:37;;;;;;;8.10;7.43;;;21.40;99.90;;;;;;4929947;28;20469;-89
2023/09/18 06:56:12;;;;;;;9.83;8.93;;;21.50;99.90;;;;;;5021056;28;20810;-89
2023/09/18 07:01:28;;;;;;;9.60;8.70;;;21.50;99.90;;;;;;5015723;28;20483;-88
2023/09/18 07:04:07;;;;;;;8.17;7.57;;;21.50;99.90;;;;;;5017077;28;20510;-88
2023/09/18 07:06:46;;;;;;;8.87;7.03;;;21.60;99.90;;;;;;5028209;28;20468;-89
2023/09/18 07:09:13;;;;;;;7.83;7.13;;;21.70;99.90;;;;;;5036878;28;20475;-88
2023/09/18 07:12:02;;;;;;;8.10;7.40;;;21.70;99.90;;;;;;5036254;28;20992;-88
2023/09/18 07:14:36;;;;;;;8.47;7.67;;;21.80;99.90;;;;;;5036876;28;20530;-88
2023/09/18 07:17:18;;;;;;;8.70;8.10;;;21.80;99.90;;;;;;5016559;28;20497;-88
2023/09/18 07:19:45;;;;;;;8.20;7.50;;;21.80;99.90;;;;;;5032878;28;20487;-88
2023/09/18 07:22:20;;;;;;;9.33;8.40;;;21.90;99.90;;;;;;5025739;28;20472;-87
2023/09/18 07:28:27;;;;;;;8.10;7.30;;;22.00;99.90;;;;;;5016682;28;20500;-88
2023/09/18 07:31:17;;;;;;;;;;;;;;;;;;;;;
2023/09/18 07:34:08;;;;;;;7.97;7.30;;;22.10;99.90;;;;;;5016928;28;20524;-90
2023/09/18 07:36:44;;;;;;;7.63;7.03;;;22.20;99.90;;;;;;5021147;28;20476;-90
2023/09/18 07:48:22;;;;;;;;;;;;;;;;;;;;;
2023/09/18 07:51:00;;;;;;;9.00;8.30;;;22.70;99.90;;;;;;5021473;28;20496;-89
2023/09/18 07:54:00;;;;;;;9.30;8.53;;;22.70;99.90;;;;;;5025772;28;20469;-89
2023/09/18 07:56:46;;;;;;;8.13;7.40;;;22.80;99.90;;;;;;5016329;28;20547;-90
2023/09/18 07:59:25;;;;;;;7.60;6.87;;;22.90;99.90;;;;;;5020860;28;20494;-89
2023/09/18 08:01:54;;;;;;;8.37;7.57;;;23.00;99.90;;;;;;5013109;28;20469;-88
2023/09/18 08:04:23;;;;;;;8.00;7.20;;;23.00;99.90;;;;;;5006983;28;20511;-88
2023/09/18 08:06:57;;;;;;;7.10;6.50;;;23.00;99.90;;;;;;5012983;28;20557;-88
2023/09/18 08:09:33;;;;;;;7.10;6.60;;;23.10;99.90;;;;;;5012843;28;20537;-89
2023/09/18 08:33:17;;;;;;;8.33;7.53;;;23.60;99.90;;;;;;5013612;28;20744;-88
2023/09/18 08:36:19;;;;;;;7.00;6.27;;;23.60;99.90;;;;;;4963005;28;20464;-89
2023/09/18 08:42:35;;;;;;;6.80;6.20;;;23.80;99.90;;;;;;4856748;29;20465;-89
2023/09/18 08:48:39;;;;;;;6.80;6.20;;;24.00;99.90;;;;;;4996097;28;20475;-88
2023/09/18 09:04:50;;;;;;;9.13;6.97;;;24.50;99.90;;;;;;4999582;28;20469;-89
2023/09/18 09:11:20;;;;;;;7.10;6.53;;;24.70;99.90;;;;;;4839497;29;20483;-88
2023/09/18 09:14:27;;;;;;;5.87;5.47;;;24.80;99.90;;;;;;4876468;29;20463;-89
2023/09/18 09:17:34;;;;;;;;;;;;;;;;;;;;;
2023/09/18 09:24:19;;;;;;;9.87;6.13;;;25.10;99.90;;;;;;4771098;30;20470;-89
2023/09/18 09:30:48;;;;;;;7.70;7.20;;;25.30;99.90;;;;;;4826405;29;20465;-88
2023/09/18 09:47:27;;;;;;;6.50;6.00;;;25.50;99.90;;;;;;5029539;28;20475;-85
2023/09/18 09:50:41;;;;;;;7.63;6.93;;;25.60;99.90;;;;;;5039301;28;20465;-89
2023/09/18 10:06:06;;;;;;;6.00;5.60;;;25.90;99.90;;;;;;5055230;28;20457;-86
2023/09/18 10:09:19;;;;;;;6.73;5.90;;;25.90;99.90;;;;;;5054676;28;20471;-88
2023/09/18 10:12:14;;;;;;;5.77;5.17;;;26.00;99.90;;;;;;5064471;28;20466;-89
2023/09/18 10:15:29;;;;;;;;;;;;;;;;;;;;;
2023/09/18 10:18:03;;;;;;;5.43;5.03;;;26.00;99.90;;;;;;5040198;28;20477;-84
2023/09/18 10:20:32;;;;;;;5.80;5.43;;;26.00;99.90;;;;;;5028129;28;20472;-85
2023/09/18 10:23:36;;;;;;;6.27;5.87;;;26.10;99.90;;;;;;5035016;28;20527;-86
2023/09/18 10:26:08;;;;;;;9.67;5.23;;;26.20;99.90;;;;;;5015427;28;20960;-86
2023/09/18 10:28:52;;;;;;;5.93;5.23;;;26.20;99.90;;;;;;5034364;28;20471;-85
2023/09/18 10:31:47;;;;;;;5.63;5.13;;;26.20;99.90;;;;;;5025889;28;20555;-90
2023/09/18 10:37:56;;;;;;;;;;;;;;;;;;;;;
2023/09/18 10:41:02;;;;;;;7.03;6.37;;;26.30;99.90;;;;;;5018100;28;20488;-90
2023/09/18 11:03:53;;;;;;;13.30;12.10;;;26.40;99.90;;;;;;4968164;28;21079;-85
2023/09/18 11:07:38;;;;;;;;;;;;;;;;;;;;;
2023/09/18 11:10:53;;;;;;;9.57;7.20;;;26.30;99.90;;;;;;4998062;28;20470;-87
2023/09/18 11:13:30;;;;;;;14.73;13.37;;;26.40;99.90;;;;;;4974658;28;20487;-86
2023/09/18 11:19:45;;;;;;;17.03;15.50;;;26.40;99.90;;;;;;4995373;28;20472;-85
2023/09/18 11:26:11;;;;;;;32.50;29.50;;;26.30;99.90;;;;;;5014098;28;20480;-87
2023/09/18 11:29:15;;;;;;;;;;;;;;;;;;;;;
2023/09/18 11:32:16;;;;;;;13.70;12.40;;;26.20;99.90;;;;;;5006965;28;20471;-89
2023/09/18 11:35:28;;;;;;;14.60;13.30;;;26.20;99.90;;;;;;5024115;28;20473;-91
2023/09/18 11:38:09;;;;;;;27.57;25.07;;;26.20;99.90;;;;;;4975315;28;20837;-87
2023/09/18 11:40:46;;;;;;;19.77;17.97;;;26.20;99.90;;;;;;5013087;28;20967;-88
2023/09/18 11:43:41;;;;;;;23.73;21.60;;;26.20;99.90;;;;;;5011661;28;21041;-87
2023/09/18 11:46:15;;;;;;;10.73;9.67;;;26.20;99.90;;;;;;5039458;28;20491;-89
2023/09/18 11:49:05;;;;;;;6.90;6.30;;;26.20;99.90;;;;;;5052617;28;20541;-86
2023/09/18 11:55:20;;;;;;;35.27;32.07;;;26.20;99.90;;;;;;5043663;28;20556;-86
2023/09/18 11:58:01;;;;;;;15.20;13.93;;;26.20;99.90;;;;;;5014268;28;20559;-89
2023/09/18 12:00:45;;;;;;;20.33;18.60;;;26.10;99.90;;;;;;5033513;28;20476;-86
2023/09/18 12:03:44;;;;;;;37.70;34.23;;;26.10;99.90;;;;;;5026661;28;20931;-86
2023/09/18 12:06:36;;;;;;;24.30;22.23;;;26.10;99.90;;;;;;5019959;28;20496;-88
2023/09/18 12:09:08;;;;;;;32.40;29.20;;;26.00;99.90;;;;;;5020046;28;20463;-89
2023/09/18 12:11:49;;;;;;;40.07;36.43;;;26.00;99.90;;;;;;5022829;28;20518;-88
2023/09/18 12:16:55;;;;;;;30.83;27.90;;;25.90;99.90;;;;;;5284578;22;20454;-86
2023/09/18 12:19:30;;;;;;;37.87;34.37;;;25.90;99.90;;;;;;5063730;28;20462;-87
2023/09/18 12:22:36;;;;;;;40.87;37.03;;;25.90;99.90;;;;;;5064663;28;20481;-89
2023/09/18 12:25:23;;;;;;;69.07;62.07;;;25.90;99.90;;;;;;4991496;28;21133;-89
2023/09/18 12:31:35;;;;;;;14.90;13.47;;;25.80;99.90;;;;;;4981552;28;20564;-86
2023/09/18 12:34:07;;;;;;;21.00;18.90;;;25.80;99.90;;;;;;5002731;28;20465;-86
2023/09/18 12:36:42;;;;;;;13.03;11.73;;;25.80;99.90;;;;;;5002306;28;20455;-86
2023/09/18 12:39:15;;;;;;;8.03;7.10;;;25.80;99.90;;;;;;4978054;28;20551;-89
2023/09/18 12:42:19;;;;;;;11.77;10.67;;;25.90;99.90;;;;;;5022961;28;20495;-85
2023/09/18 12:45:09;;;;;;;21.03;18.83;;;25.90;99.90;;;;;;5049717;28;20478;-90
2023/09/18 12:47:47;;;;;;;28.03;25.47;;;25.90;99.90;;;;;;5043866;28;20537;-86
2023/09/18 12:53:49;;;;;;;24.20;22.00;;;25.80;99.90;;;;;;5039002;28;20464;-86
2023/09/18 12:56:29;;;;;;;6.80;5.20;;;25.80;99.90;;;;;;5052181;28;20805;-85
2023/09/18 12:59:06;;;;;;;13.77;12.63;;;25.70;99.90;;;;;;5041596;28;20461;-85
2023/09/18 13:01:35;;;;;;;26.53;24.10;;;25.70;99.90;;;;;;5052065;28;20459;-85
2023/09/18 13:04:22;;;;;;;20.20;18.20;;;25.70;99.90;;;;;;5051741;28;20460;-85
2023/09/18 13:07:05;;;;;;;50.93;45.83;;;25.70;99.90;;;;;;5052178;28;20459;-86
2023/09/18 13:09:59;;;;;;;43.37;39.47;;;25.60;99.90;;;;;;5041896;28;20474;-89
2023/09/18 13:12:43;;;;;;;19.83;18.10;;;25.50;99.90;;;;;;5026360;28;20550;-86
2023/09/18 13:15:17;;;;;;;24.33;21.93;;;25.40;99.90;;;;;;5044755;28;20557;-86
2023/09/18 13:20:46;;;;;;;21.50;19.43;;;25.20;99.90;;;;;;4999235;28;20876;-86
2023/09/18 13:23:17;;;;;;;22.10;19.97;;;25.20;99.90;;;;;;5002963;28;20488;-85
2023/09/18 13:25:51;;;;;;;12.50;11.40;;;25.10;99.90;;;;;;5038010;28;20485;-86
2023/09/18 13:29:03;;;;;;;16.80;15.23;;;25.10;99.90;;;;;;5046930;28;20495;-88
2023/09/18 13:31:37;;;;;;;12.47;11.33;;;25.10;99.90;;;;;;5052784;28;20461;-87
2023/09/18 13:34:29;;;;;;;10.63;9.20;;;25.10;99.90;;;;;;5053147;28;20444;-87
2023/09/18 13:37:11;;;;;;;11.27;10.27;;;25.20;99.90;;;;;;5055860;28;20470;-87
2023/09/18 13:40:12;;;;;;;;;;;;;;;;;;;;;
2023/09/18 13:49:53;;;;;;;12.00;10.87;;;25.10;99.90;;;;;;4983001;28;20492;-85
2023/09/18 13:52:54;;;;;;;10.13;9.13;;;25.00;99.90;;;;;;4967856;28;20481;-87
2023/09/18 13:55:30;;;;;;;9.90;8.90;;;25.00;99.90;;;;;;5019930;28;21198;-88
2023/09/18 14:07:10;;;;;;;;;;;;;;;;;;;;;
2023/09/18 14:09:57;;;;;;;9.77;8.43;;;24.60;99.90;;;;;;5074380;28;20803;-88
2023/09/18 14:15:16;;;;;;;7.23;6.63;;;24.60;99.90;;;;;;5031660;28;20868;-89
2023/09/18 14:21:21;;;;;;;9.20;7.80;;;24.60;99.90;;;;;;5005347;28;20472;-83
2023/09/18 14:23:52;;;;;;;7.17;6.10;;;24.60;99.90;;;;;;5035430;28;20506;-90
2023/09/18 14:26:43;;;;;;;;;;;;;;;;;;;;;
2023/09/18 14:29:20;;;;;;;13.00;11.37;;;24.70;99.90;;;;;;5033178;28;20472;-90
2023/09/18 14:31:52;;;;;;;12.03;10.70;;;24.70;99.90;;;;;;5038448;28;20551;-83
2023/09/18 14:34:22;;;;;;;11.00;10.00;;;24.70;99.90;;;;;;5025650;28;20507;-82
2023/09/18 14:36:57;;;;;;;12.87;11.60;;;24.80;99.90;;;;;;5036394;28;20571;-82
2023/09/18 14:39:37;;;;;;;10.13;8.07;;;24.80;99.90;;;;;;5033936;28;20507;-83
2023/09/18 14:42:14;;;;;;;11.10;8.50;;;24.70;99.90;;;;;;5039508;28;20467;-83
2023/09/18 14:44:44;;;;;;;13.33;8.40;;;24.70;99.90;;;;;;5025430;28;20478;-83
2023/09/18 14:47:16;;;;;;;8.27;6.90;;;24.70;99.90;;;;;;5029161;28;20906;-84
2023/09/18 14:49:49;;;;;;;9.40;6.63;;;24.60;99.90;;;;;;5034423;28;20479;-83
2023/09/18 14:52:23;;;;;;;8.23;7.57;;;24.60;99.90;;;;;;5033936;28;20472;-83
2023/09/18 14:54:55;;;;;;;8.03;7.33;;;24.60;99.90;;;;;;5041078;28;20467;-89
2023/09/18 15:00:17;;;;;;;9.40;6.97;;;24.70;99.90;;;;;;5029633;28;20475;-90
2023/09/18 15:03:44;;;;;;;8.13;7.37;;;24.60;99.90;;;;;;5054219;28;21021;-82
2023/09/18 15:06:28;;;;;;;6.60;6.00;;;24.60;99.90;;;;;;5043444;28;20476;-83
2023/09/18 15:08:55;;;;;;;7.70;6.97;;;24.60;99.90;;;;;;5042280;28;20778;-84
2023/09/18 15:14:31;;;;;;;6.53;4.63;;;24.60;99.90;;;;;;5053486;28;20533;-84
2023/09/18 15:17:06;;;;;;;9.00;5.77;;;24.60;99.90;;;;;;5053461;28;20536;-85
2023/09/18 15:19:56;;;;;;;7.00;4.60;;;24.60;99.90;;;;;;5033195;28;20481;-85
2023/09/18 15:22:25;;;;;;;8.43;7.53;;;24.60;99.90;;;;;;5052112;28;20463;-85
2023/09/18 15:25:27;;;;;;;7.03;3.70;;;24.60;99.90;;;;;;5054091;28;20506;-85
2023/09/18 15:27:58;;;;;;;8.20;6.03;;;24.60;99.90;;;;;;5053402;28;20965;-85
2023/09/18 15:30:26;;;;;;;7.53;3.33;;;24.50;99.90;;;;;;5053715;28;20477;-84
2023/09/18 15:32:56;;;;;;;4.97;4.17;;;24.50;99.90;;;;;;5052762;28;20858;-84
2023/09/18 15:35:31;;;;;;;9.37;5.10;;;24.40;99.90;;;;;;5054894;28;20467;-89
2023/09/18 15:37:59;;;;;;;5.73;5.17;;;24.40;99.90;;;;;;5030681;28;20475;-90
2023/09/18 15:40:28;;;;;;;6.73;5.53;;;24.50;99.90;;;;;;5041858;28;20548;-84
2023/09/18 15:42:59;;;;;;;7.67;4.37;;;24.40;99.90;;;;;;5052758;28;20836;-83
2023/09/18 15:45:29;;;;;;;5.47;3.43;;;24.50;99.90;;;;;;5044057;28;20475;-84
2023/09/18 15:47:56;;;;;;;6.73;4.43;;;24.40;99.90;;;;;;5053704;28;20525;-84
2023/09/18 15:50:24;;;;;;;6.83;4.67;;;24.50;99.90;;;;;;5054682;28;20463;-84
2023/09/18 15:52:56;;;;;;;7.37;6.27;;;24.40;99.90;;;;;;5054183;28;20550;-89
2023/09/18 15:55:26;;;;;;;5.90;4.57;;;24.50;99.90;;;;;;5055297;28;20462;-89
2023/09/18 15:57:59;;;;;;;9.33;7.20;;;24.40;99.90;;;;;;5043116;28;20487;-90
2023/09/18 16:00:26;;;;;;;6.90;5.73;;;24.40;99.90;;;;;;5054277;28;20439;-89
2023/09/18 16:02:58;;;;;;;8.13;6.13;;;24.40;99.90;;;;;;5044848;28;20486;-89
2023/09/18 16:05:28;;;;;;;8.47;6.00;;;24.40;99.90;;;;;;5038444;28;20479;-85
2023/09/18 16:08:04;;;;;;;7.50;6.63;;;24.40;99.90;;;;;;5053214;28;20770;-89
2023/09/18 16:10:32;;;;;;;10.57;9.17;;;24.40;99.90;;;;;;5053907;28;20475;-89
2023/09/18 16:13:11;;;;;;;10.97;9.67;;;24.30;99.90;;;;;;5054498;28;20468;-89
2023/09/18 16:15:38;;;;;;;14.10;12.87;;;24.30;99.90;;;;;;5055189;28;20972;-89
2023/09/18 16:18:07;;;;;;;11.27;5.67;;;24.30;99.90;;;;;;5053150;28;20471;-84
2023/09/18 16:20:40;;;;;;;12.33;7.37;;;24.30;99.90;;;;;;5048763;28;20507;-85
2023/09/18 16:23:38;;;;;;;;;;;;;;;;;;;;;
2023/09/18 16:26:08;;;;;;;11.70;7.77;;;24.30;99.90;;;;;;5019211;28;20478;-85
2023/09/18 16:28:37;;;;;;;9.33;6.47;;;24.30;99.90;;;;;;5036792;28;21306;-85
2023/09/18 16:31:06;;;;;;;6.40;5.10;;;24.20;99.90;;;;;;5038945;28;20471;-85
2023/09/18 16:33:40;;;;;;;7.87;6.77;;;24.20;99.90;;;;;;5048097;28;20464;-84
2023/09/18 16:36:08;;;;;;;8.90;7.80;;;24.10;99.90;;;;;;5042968;28;20533;-84
2023/09/18 16:38:41;;;;;;;8.43;7.53;;;24.00;99.90;;;;;;5039138;28;20525;-84
2023/09/18 16:41:24;;;;;;;8.57;7.67;;;24.00;99.90;;;;;;5024892;28;20556;-89
2023/09/18 16:44:25;;;;;;;9.47;5.60;;;24.00;99.90;;;;;;5044266;28;20485;-89
2023/09/18 16:47:26;;;;;;;;;;;;;;;;;;;;;
2023/09/18 16:52:48;;;;;;;52.67;47.17;;;23.80;99.90;;;;;;5045796;28;21008;-84
2023/09/18 16:55:19;;;;;;;77.17;65.77;;;23.60;99.90;;;;;;5049963;28;20477;-89
2023/09/18 16:57:47;;;;;;;67.77;60.13;;;23.50;99.90;;;;;;5059092;28;20481;-89
2023/09/18 17:00:47;;;;;;;15.50;13.97;;;23.50;99.90;;;;;;5041571;28;20474;-89
2023/09/18 17:03:17;;;;;;;41.20;35.30;;;23.50;99.90;;;;;;5049136;28;20447;-88
2023/09/18 17:05:53;;;;;;;87.50;73.63;;;23.50;99.90;;;;;;5069466;28;20474;-90
2023/09/18 17:08:28;;;;;;;108.93;92.47;;;23.50;99.90;;;;;;5039476;28;20527;-85
2023/09/18 17:10:57;;;;;;;45.60;40.63;;;23.40;99.90;;;;;;5076437;28;20527;-84
2023/09/18 17:13:24;;;;;;;124.77;106.23;;;23.40;99.90;;;;;;5077404;28;20531;-81
2023/09/18 17:15:55;;;;;;;9.80;7.50;;;23.40;99.90;;;;;;5074949;28;20484;-89
2023/09/18 17:18:25;;;;;;;9.57;8.63;;;23.40;99.90;;;;;;5058417;28;20467;-91
2023/09/18 17:20:55;;;;;;;7.70;6.90;;;23.40;99.90;;;;;;5061693;28;20462;-91
2023/09/18 17:23:25;;;;;;;8.97;6.80;;;23.40;99.90;;;;;;5055709;28;20471;-91
2023/09/18 17:25:54;;;;;;;12.30;9.30;;;23.30;99.90;;;;;;5072663;28;20470;-80
2023/09/18 17:28:24;;;;;;;29.57;26.43;;;23.20;99.90;;;;;;5056836;28;20459;-90
2023/09/18 17:30:52;;;;;;;22.27;15.83;;;23.20;99.90;;;;;;5075359;28;20498;-80
2023/09/18 17:33:20;;;;;;;7.67;6.13;;;23.10;99.90;;;;;;5076614;28;20478;-89
2023/09/18 17:35:48;;;;;;;12.67;9.03;;;23.10;99.90;;;;;;5075690;28;20481;-79